createdAt,value
2018-07-14T00:02:13.826Z,88.50
2018-07-14T00:04:42.831Z,88.60
2018-07-14T00:07:11.806Z,88.60
2018-07-14T00:09:40.779Z,88.50
2018-07-14T00:12:09.826Z,88.50
2018-07-14T00:14:38.762Z,88.80
2018-07-14T00:17:07.707Z,88.90
2018-07-14T00:19:36.649Z,88.80
2018-07-14T00:22:05.600Z,88.90
2018-07-14T00:24:34.535Z,88.70
2018-07-14T00:27:03.535Z,89.30
2018-07-14T00:29:32.452Z,89.40
2018-07-14T00:32:01.362Z,88.70
2018-07-14T00:34:30.315Z,88.70
2018-07-14T00:36:59.251Z,88.80
2018-07-14T00:39:28.199Z,88.90
2018-07-14T00:41:57.127Z,89.30
2018-07-14T00:44:26.097Z,89.70
2018-07-14T00:46:55.017Z,90.00
2018-07-14T00:49:23.910Z,89.80
2018-07-14T00:51:52.887Z,90.00
2018-07-14T00:54:21.838Z,90.00
2018-07-14T00:56:50.867Z,90.00
2018-07-14T00:59:19.830Z,90.20
2018-07-14T01:01:48.761Z,90.50
2018-07-14T01:04:17.704Z,90.80
2018-07-14T01:06:46.674Z,91.00
2018-07-14T01:09:15.782Z,90.50
2018-07-14T01:11:44.706Z,90.40
2018-07-14T01:14:14.023Z,90.40
2018-07-14T01:16:43.059Z,90.50
2018-07-14T01:19:12.034Z,90.70
2018-07-14T01:21:40.982Z,90.60
2018-07-14T01:24:09.909Z,90.70
2018-07-14T01:26:43.146Z,90.70
2018-07-14T01:29:12.770Z,90.70
2018-07-14T01:31:41.997Z,90.90
2018-07-14T01:34:10.994Z,90.80
2018-07-14T01:39:09.082Z,90.80
2018-07-14T01:41:38.238Z,91.00
2018-07-14T01:44:07.234Z,91.00
2018-07-14T01:46:36.167Z,91.00
2018-07-14T01:51:33.642Z,91.00
2018-07-14T01:54:02.595Z,91.00
2018-07-14T01:56:31.523Z,91.00
2018-07-14T01:59:00.467Z,91.00
2018-07-14T02:01:29.419Z,91.00
2018-07-14T02:03:58.354Z,90.90
2018-07-14T02:06:27.262Z,91.00
2018-07-14T02:08:56.243Z,91.50
2018-07-14T02:11:25.243Z,91.60
2018-07-14T02:13:54.204Z,91.80
2018-07-14T02:16:23.204Z,92.20
2018-07-14T02:18:52.128Z,92.30
2018-07-14T02:21:21.128Z,92.30
2018-07-14T02:23:50.053Z,92.30
2018-07-14T02:26:18.958Z,92.40
2018-07-14T02:28:48.446Z,92.80
2018-07-14T02:31:17.370Z,92.80
2018-07-14T02:33:46.366Z,92.80
2018-07-14T02:36:15.335Z,92.60
2018-07-14T02:38:44.277Z,92.60
2018-07-14T02:41:13.234Z,92.60
2018-07-14T02:43:42.138Z,92.80
2018-07-14T02:46:11.060Z,92.90
2018-07-14T02:48:40.015Z,92.70
2018-07-14T02:51:08.932Z,93.00
2018-07-14T02:53:37.862Z,92.90
2018-07-14T02:56:06.794Z,93.00
2018-07-14T02:58:35.744Z,92.90
2018-07-14T03:01:04.762Z,93.00
2018-07-14T03:03:33.703Z,92.90
2018-07-14T03:06:02.663Z,92.90
2018-07-14T03:08:31.603Z,93.20
2018-07-14T03:11:00.531Z,93.60
2018-07-14T03:13:29.507Z,93.70
2018-07-14T03:15:58.431Z,93.50
2018-07-14T03:18:27.363Z,93.30
2018-07-14T03:20:56.293Z,93.40
2018-07-14T03:23:25.246Z,93.80
2018-07-14T03:25:54.190Z,93.90
2018-07-14T03:28:23.185Z,94.20
2018-07-14T03:30:52.107Z,94.30
2018-07-14T03:33:21.152Z,94.30
2018-07-14T03:35:50.007Z,94.70
2018-07-14T03:38:18.891Z,94.80
2018-07-14T03:40:47.910Z,94.90
2018-07-14T03:43:16.859Z,95.20
2018-07-14T03:45:45.822Z,95.40
2018-07-14T03:48:14.733Z,95.40
2018-07-14T03:50:43.703Z,95.50
2018-07-14T03:53:12.724Z,95.40
2018-07-14T03:55:41.660Z,95.40
2018-07-14T03:58:10.617Z,95.60
2018-07-14T04:00:39.559Z,95.50
2018-07-14T04:03:08.490Z,95.60
2018-07-14T04:05:37.424Z,95.80
2018-07-14T04:08:06.380Z,96.00
2018-07-14T04:10:35.290Z,95.90
2018-07-14T04:13:04.270Z,96.00
2018-07-14T04:15:33.199Z,96.00
2018-07-14T04:18:04.347Z,95.90
2018-07-14T04:20:34.506Z,95.70
2018-07-14T04:23:03.507Z,95.60
2018-07-14T04:25:32.807Z,95.90
2018-07-14T04:28:02.247Z,95.60
2018-07-14T04:30:31.150Z,95.90
2018-07-14T04:33:00.076Z,95.80
2018-07-14T04:35:29.025Z,95.50
2018-07-14T04:37:57.964Z,95.20
2018-07-14T04:40:26.879Z,95.30
2018-07-14T04:42:55.857Z,95.20
2018-07-14T04:45:24.781Z,95.20
2018-07-14T04:47:53.701Z,94.70
2018-07-14T04:50:22.631Z,94.50
2018-07-14T04:52:51.804Z,93.80
2018-07-14T04:55:21.335Z,93.70
2018-07-14T04:57:50.307Z,93.60
2018-07-14T05:00:19.267Z,93.40
2018-07-14T05:02:48.250Z,93.30
2018-07-14T05:05:17.168Z,93.20
2018-07-14T05:07:46.079Z,93.20
2018-07-14T05:10:15.055Z,93.10
2018-07-14T05:12:44.007Z,93.10
2018-07-14T05:15:12.954Z,93.20
2018-07-14T05:17:41.922Z,93.30
2018-07-14T05:20:10.839Z,93.20
2018-07-14T05:22:39.778Z,93.60
2018-07-14T05:25:08.715Z,93.70
2018-07-14T05:27:37.697Z,93.70
2018-07-14T05:30:07.244Z,93.90
2018-07-14T05:32:36.187Z,93.80
2018-07-14T05:35:05.239Z,93.70
2018-07-14T05:37:34.167Z,93.00
2018-07-14T05:40:04.027Z,92.90
2018-07-14T05:42:32.971Z,92.80
2018-07-14T05:45:01.944Z,92.90
2018-07-14T05:47:30.914Z,93.00
2018-07-14T05:49:59.876Z,92.50
2018-07-14T05:52:28.776Z,93.00
2018-07-14T05:54:57.707Z,91.70
2018-07-14T05:57:26.652Z,91.70
2018-07-14T05:59:55.619Z,91.40
2018-07-14T06:02:24.558Z,91.10
2018-07-14T06:04:53.479Z,90.20
2018-07-14T06:07:22.426Z,89.00
2018-07-14T06:09:51.378Z,88.20
2018-07-14T06:12:20.306Z,89.30
2018-07-14T06:14:49.267Z,89.00
2018-07-14T06:17:18.236Z,89.10
2018-07-14T06:19:47.167Z,89.90
2018-07-14T06:22:16.175Z,89.80
2018-07-14T06:24:45.094Z,90.00
2018-07-14T06:27:14.248Z,90.00
2018-07-14T06:29:43.190Z,90.20
2018-07-14T06:32:12.157Z,90.40
2018-07-14T06:34:41.042Z,90.30
2018-07-14T06:37:10.011Z,90.50
2018-07-14T06:39:38.938Z,89.60
2018-07-14T06:42:07.904Z,90.00
2018-07-14T06:44:36.861Z,90.30
2018-07-14T06:47:05.885Z,90.20
2018-07-14T06:49:34.906Z,89.00
2018-07-14T06:52:03.867Z,86.40
2018-07-14T06:54:32.805Z,84.80
2018-07-14T06:57:01.715Z,84.50
2018-07-14T06:59:30.634Z,84.70
2018-07-14T07:01:59.589Z,84.50
2018-07-14T07:04:28.525Z,84.60
2018-07-14T07:06:57.458Z,84.90
2018-07-14T07:09:26.450Z,84.50
2018-07-14T07:11:55.494Z,84.60
2018-07-14T07:14:24.471Z,84.30
2018-07-14T07:16:53.439Z,83.80
2018-07-14T07:19:22.373Z,84.90
2018-07-14T07:21:51.327Z,84.50
2018-07-14T07:24:20.304Z,84.60
2018-07-14T07:26:49.258Z,84.90
2018-07-14T07:29:18.197Z,82.80
2018-07-14T07:31:47.138Z,83.30
2018-07-14T07:34:16.248Z,83.90
2018-07-14T07:36:45.230Z,82.90
2018-07-14T07:39:14.273Z,81.60
2018-07-14T07:41:43.202Z,82.40
2018-07-14T07:44:12.182Z,79.90
2018-07-14T07:46:41.153Z,78.30
2018-07-14T07:49:10.108Z,76.60
2018-07-14T07:51:39.098Z,76.60
2018-07-14T07:54:08.063Z,77.10
2018-07-14T07:56:37.100Z,76.00
2018-07-14T07:59:06.105Z,76.10
2018-07-14T08:04:03.630Z,73.90
2018-07-14T08:06:32.609Z,71.20
2018-07-14T08:09:01.536Z,71.50
2018-07-14T08:11:30.534Z,69.10
2018-07-14T08:13:59.493Z,69.20
2018-07-14T08:16:28.410Z,70.50
2018-07-14T08:18:57.401Z,70.90
2018-07-14T08:21:26.367Z,71.60
2018-07-14T08:23:55.516Z,71.30
2018-07-14T08:26:24.936Z,69.10
2018-07-14T08:28:53.899Z,67.60
2018-07-14T08:31:22.818Z,69.70
2018-07-14T08:33:51.816Z,68.50
2018-07-14T08:36:20.790Z,69.60
2018-07-14T08:38:49.796Z,67.10
2018-07-14T08:41:18.744Z,65.40
2018-07-14T08:43:47.773Z,65.90
2018-07-14T08:46:16.826Z,65.50
2018-07-14T08:48:45.804Z,65.60
2018-07-14T08:51:14.868Z,66.10
2018-07-14T08:53:43.752Z,65.70
2018-07-14T08:56:12.696Z,65.30
2018-07-14T08:58:50.724Z,63.60
2018-07-14T09:01:20.049Z,63.70
2018-07-14T09:03:49.565Z,62.90
2018-07-14T09:06:18.524Z,64.30
2018-07-14T09:08:47.526Z,60.00
2018-07-14T09:11:16.495Z,59.20
2018-07-14T09:13:45.533Z,59.10
2018-07-14T09:16:14.505Z,59.30
2018-07-14T09:18:43.459Z,57.80
2018-07-14T09:21:12.558Z,58.40
2018-07-14T09:23:41.562Z,57.90
2018-07-14T09:26:10.534Z,55.00
2018-07-14T09:28:40.427Z,55.10
2018-07-14T09:31:09.458Z,54.20
2018-07-14T09:33:38.743Z,57.30
2018-07-14T09:36:07.718Z,55.90
2018-07-14T09:38:36.676Z,54.90
2018-07-14T09:41:05.764Z,54.50
2018-07-14T09:43:34.686Z,54.30
2018-07-14T09:46:03.663Z,52.60
2018-07-14T09:48:32.607Z,56.80
2018-07-14T09:51:01.588Z,55.90
2018-07-14T09:53:30.680Z,54.80
2018-07-14T09:55:59.614Z,52.30
2018-07-14T09:58:28.612Z,52.00
2018-07-14T10:01:03.015Z,51.50
2018-07-14T10:03:32.073Z,54.60
2018-07-14T10:06:01.136Z,52.90
2018-07-14T10:08:30.394Z,51.70
2018-07-14T10:10:59.332Z,52.30
2018-07-14T10:13:28.454Z,51.40
2018-07-14T10:15:57.909Z,51.30
2018-07-14T10:18:27.722Z,50.50
2018-07-14T10:22:30.306Z,52.40
2018-07-14T10:25:00.064Z,49.30
2018-07-14T10:27:29.783Z,51.10
2018-07-14T10:29:59.455Z,48.80
2018-07-14T10:32:29.138Z,48.90
2018-07-14T10:34:58.838Z,48.40
2018-07-14T10:37:28.535Z,49.00
2018-07-14T10:39:58.239Z,48.90
2018-07-14T10:42:27.982Z,49.10
2018-07-14T10:44:57.654Z,49.40
2018-07-14T10:49:56.588Z,49.50
2018-07-14T10:52:26.266Z,50.10
2018-07-14T10:54:56.295Z,51.10
2018-07-14T10:57:25.998Z,53.30
2018-07-14T10:59:55.719Z,50.30
2018-07-14T11:02:25.402Z,50.50
2018-07-14T11:04:55.155Z,51.70
2018-07-14T11:07:24.830Z,53.10
2018-07-14T11:09:54.716Z,52.90
2018-07-14T11:12:24.414Z,52.90
2018-07-14T11:14:54.118Z,53.40
2018-07-14T11:17:23.815Z,52.90
2018-07-14T11:19:53.519Z,52.40
2018-07-14T11:22:23.205Z,52.40
2018-07-14T11:24:53.222Z,53.80
2018-07-14T11:27:22.962Z,51.90
2018-07-14T11:29:52.670Z,52.90
2018-07-14T11:32:22.363Z,53.40
2018-07-14T11:34:52.068Z,53.20
2018-07-14T11:37:21.781Z,53.40
2018-07-14T11:39:51.520Z,51.10
2018-07-14T11:42:21.247Z,51.40
2018-07-14T11:44:50.982Z,50.20
2018-07-14T11:47:20.671Z,51.50
2018-07-14T11:49:50.450Z,50.90
2018-07-14T11:52:20.121Z,48.50
2018-07-14T11:54:49.863Z,47.10
2018-07-14T11:57:19.542Z,47.70
2018-07-14T11:59:49.248Z,47.00
2018-07-14T12:02:18.987Z,47.00
2018-07-14T12:04:49.554Z,46.00
2018-07-14T12:07:19.335Z,45.00
2018-07-14T12:09:49.039Z,45.30
2018-07-14T12:12:19.282Z,47.90
2018-07-14T12:14:48.995Z,47.30
2018-07-14T12:17:18.715Z,44.90
2018-07-14T12:19:48.410Z,44.40
2018-07-14T12:22:18.325Z,42.60
2018-07-14T12:24:48.096Z,43.30
2018-07-14T12:27:17.876Z,41.90
2018-07-14T12:29:47.594Z,42.20
2018-07-14T12:34:46.659Z,45.70
2018-07-14T12:37:16.370Z,46.90
2018-07-14T12:39:46.091Z,46.90
2018-07-14T12:42:15.890Z,46.30
2018-07-14T12:44:45.651Z,47.70
2018-07-14T12:47:15.380Z,48.70
2018-07-14T12:49:45.143Z,48.50
2018-07-14T12:52:14.919Z,49.20
2018-07-14T12:54:44.741Z,49.00
2018-07-14T12:57:14.702Z,48.10
2018-07-14T13:02:13.751Z,48.70
2018-07-14T13:04:43.721Z,48.60
2018-07-14T13:07:13.628Z,48.30
2018-07-14T13:12:12.528Z,47.50
2018-07-14T13:14:42.234Z,47.20
2018-07-14T13:17:12.316Z,47.80
2018-07-14T13:19:42.069Z,46.80
2018-07-14T13:22:11.958Z,46.90
2018-07-14T13:24:41.670Z,46.40
2018-07-14T13:27:11.503Z,46.70
2018-07-14T13:29:41.264Z,46.50
2018-07-14T13:32:10.982Z,45.40
2018-07-14T13:34:40.692Z,46.50
2018-07-14T13:37:10.471Z,44.60
2018-07-14T13:39:40.189Z,44.50
2018-07-14T13:42:09.915Z,42.90
2018-07-14T13:44:39.641Z,44.00
2018-07-14T13:47:09.384Z,44.20
2018-07-14T13:49:39.068Z,44.10
2018-07-14T13:52:09.024Z,45.00
2018-07-14T13:54:38.721Z,42.50
2018-07-14T13:57:08.459Z,42.40
2018-07-14T13:59:38.167Z,44.00
2018-07-14T14:02:07.965Z,43.40
2018-07-14T14:04:37.680Z,43.00
2018-07-14T14:07:07.345Z,41.90
2018-07-14T14:09:37.031Z,40.80
2018-07-14T14:12:07.279Z,41.20
2018-07-14T14:14:36.983Z,41.80
2018-07-14T14:17:06.656Z,41.90
2018-07-14T14:19:36.483Z,41.90
2018-07-14T14:22:06.438Z,43.70
2018-07-14T14:24:36.183Z,43.10
2018-07-14T14:27:06.198Z,44.00
2018-07-14T14:29:36.417Z,43.60
2018-07-14T14:32:06.155Z,44.60
2018-07-14T14:34:35.880Z,45.20
2018-07-14T14:37:05.613Z,45.90
2018-07-14T14:39:35.559Z,46.80
2018-07-14T14:42:05.247Z,46.70
2018-07-14T14:44:34.946Z,46.70
2018-07-14T14:47:04.664Z,45.80
2018-07-14T14:49:34.391Z,47.60
2018-07-14T14:52:04.706Z,47.00
2018-07-14T14:54:34.443Z,48.00
2018-07-14T14:57:04.197Z,47.80
2018-07-14T15:02:03.137Z,48.90
2018-07-14T15:04:32.842Z,48.70
2018-07-14T15:07:02.550Z,49.30
2018-07-14T15:09:32.359Z,49.30
2018-07-14T15:12:02.114Z,49.80
2018-07-14T15:14:31.908Z,50.40
2018-07-14T15:17:01.599Z,50.90
2018-07-14T15:19:31.318Z,51.70
2018-07-14T15:22:01.060Z,52.30
2018-07-14T15:24:30.734Z,53.30
2018-07-14T15:27:00.443Z,53.50
2018-07-14T15:29:30.191Z,57.40
2018-07-14T15:31:59.887Z,61.60
2018-07-14T15:34:29.628Z,65.30
2018-07-14T15:36:59.351Z,66.50
2018-07-14T15:39:29.062Z,67.70
2018-07-14T15:41:58.783Z,74.20
2018-07-14T15:44:28.471Z,76.10
2018-07-14T15:46:58.162Z,83.60
2018-07-14T15:49:27.877Z,80.50
2018-07-14T15:51:57.550Z,85.40
2018-07-14T15:54:27.315Z,87.90
2018-07-14T15:56:57.011Z,90.50
2018-07-14T15:59:26.707Z,91.10
2018-07-14T16:01:56.516Z,93.60
2018-07-14T16:04:26.355Z,98.80
2018-07-14T16:06:56.105Z,99.80
2018-07-14T16:09:25.809Z,97.90
2018-07-14T16:11:55.596Z,95.30
2018-07-14T16:14:25.295Z,92.50
2018-07-14T16:16:55.020Z,90.30
2018-07-14T16:19:24.723Z,88.60
2018-07-14T16:21:54.435Z,88.80
2018-07-14T16:24:24.146Z,88.50
2018-07-14T16:26:53.863Z,90.30
2018-07-14T16:29:23.588Z,90.80
2018-07-14T16:31:53.301Z,88.40
2018-07-14T16:34:23.079Z,85.70
2018-07-14T16:36:52.840Z,90.20
2018-07-14T16:39:22.707Z,91.30
2018-07-14T16:41:52.514Z,91.00
2018-07-14T16:44:22.234Z,92.00
2018-07-14T16:46:52.027Z,90.20
2018-07-14T16:49:21.746Z,88.50
2018-07-14T16:51:51.491Z,90.70
2018-07-14T16:54:21.176Z,91.50
2018-07-14T16:56:50.895Z,91.10
2018-07-14T16:59:20.599Z,91.30
2018-07-14T17:01:50.342Z,90.50
2018-07-14T17:04:20.096Z,91.40
2018-07-14T17:06:49.891Z,92.10
2018-07-14T17:09:19.734Z,93.40
2018-07-14T17:11:49.447Z,93.10
2018-07-14T17:14:19.296Z,93.20
2018-07-14T17:16:49.069Z,94.20
2018-07-14T17:19:18.791Z,94.40
2018-07-14T17:21:48.503Z,95.90
2018-07-14T17:24:18.199Z,94.90
2018-07-14T17:26:47.915Z,96.50
2018-07-14T17:29:18.234Z,96.10
2018-07-14T17:31:48.020Z,96.00
2018-07-14T17:34:17.844Z,96.90
2018-07-14T17:36:47.559Z,97.50
2018-07-14T17:39:17.313Z,96.80
2018-07-14T17:41:47.024Z,97.40
2018-07-14T17:44:16.782Z,98.00
2018-07-14T17:46:46.455Z,98.10
2018-07-14T17:49:16.156Z,97.20
2018-07-14T17:51:45.899Z,96.80
2018-07-14T17:54:15.644Z,97.40
2018-07-14T17:56:45.367Z,96.90
2018-07-14T17:59:15.087Z,98.20
2018-07-14T18:01:44.847Z,98.30
2018-07-14T18:04:14.597Z,98.80
2018-07-14T18:06:44.290Z,98.80
2018-07-14T18:09:14.026Z,99.60
2018-07-14T18:11:43.716Z,99.00
2018-07-14T18:14:13.508Z,99.60
2018-07-14T18:16:43.171Z,99.90
2018-07-14T18:19:12.944Z,99.90
2018-07-14T18:21:42.690Z,99.90
2018-07-14T18:24:12.391Z,99.90
2018-07-14T18:26:42.129Z,99.90
2018-07-14T18:29:11.791Z,99.90
2018-07-14T18:31:41.573Z,99.90
2018-07-14T18:34:11.276Z,99.90
2018-07-14T18:36:41.108Z,99.90
2018-07-14T18:39:10.796Z,99.90
2018-07-14T18:41:40.517Z,99.90
2018-07-14T18:44:10.211Z,99.90
2018-07-14T18:46:39.919Z,99.90
2018-07-14T18:49:09.655Z,99.90
2018-07-14T18:51:39.367Z,99.90
2018-07-14T18:54:09.115Z,99.90
2018-07-14T18:56:38.801Z,99.90
2018-07-14T18:59:08.538Z,99.90
2018-07-14T19:01:38.295Z,99.90
2018-07-14T19:06:37.306Z,99.90
2018-07-14T19:09:07.088Z,99.90
2018-07-14T19:11:36.805Z,99.90
2018-07-14T19:14:06.576Z,99.90
2018-07-14T19:16:36.255Z,99.90
2018-07-14T19:19:05.968Z,99.90
2018-07-14T19:21:35.854Z,99.90
2018-07-14T19:24:05.717Z,99.90
2018-07-14T19:26:35.478Z,99.90
2018-07-14T19:29:05.617Z,99.90
2018-07-14T19:31:35.325Z,99.90
2018-07-14T19:34:05.015Z,99.90
2018-07-14T19:36:34.738Z,99.90
2018-07-14T19:39:05.471Z,99.90
2018-07-14T19:41:35.279Z,99.90
2018-07-14T19:44:05.024Z,99.90
2018-07-14T19:46:34.727Z,99.90
2018-07-14T19:49:04.451Z,99.90
2018-07-14T19:51:34.195Z,99.90
2018-07-14T19:54:03.945Z,99.90
2018-07-14T19:56:33.685Z,99.90
2018-07-14T19:59:03.475Z,99.90
2018-07-14T20:01:33.520Z,99.90
2018-07-14T20:04:03.167Z,99.90
2018-07-14T20:06:32.920Z,99.90
2018-07-14T20:09:02.637Z,99.90
2018-07-14T20:11:32.346Z,99.90
2018-07-14T20:14:02.139Z,99.90
2018-07-14T20:16:31.802Z,99.90
2018-07-14T20:19:01.548Z,99.90
2018-07-14T20:21:31.306Z,99.90
2018-07-14T20:24:01.009Z,99.90
2018-07-14T20:26:30.730Z,99.90
2018-07-14T20:29:00.479Z,99.90
2018-07-14T20:31:30.216Z,99.90
2018-07-14T20:34:00.426Z,99.90
2018-07-14T20:36:30.170Z,99.90
2018-07-14T20:38:59.900Z,99.90
2018-07-14T20:41:29.760Z,99.90
2018-07-14T20:43:59.345Z,99.90
2018-07-14T20:46:29.272Z,99.90
2018-07-14T20:48:59.005Z,99.90
2018-07-14T20:51:28.761Z,99.90
2018-07-14T20:53:58.461Z,99.90
2018-07-14T20:56:28.188Z,99.90
2018-07-14T20:58:57.919Z,99.90
2018-07-14T21:01:27.627Z,99.90
2018-07-14T21:03:57.380Z,99.90
2018-07-14T21:06:27.087Z,99.90
2018-07-14T21:08:56.826Z,99.90
2018-07-14T21:11:26.528Z,99.90
2018-07-14T21:13:56.279Z,99.90
2018-07-14T21:16:25.965Z,99.90
2018-07-14T21:18:55.702Z,99.90
2018-07-14T21:21:25.596Z,99.90
2018-07-14T21:23:55.267Z,99.90
2018-07-14T21:26:25.740Z,99.90
2018-07-14T21:28:55.566Z,99.90
2018-07-14T21:31:25.282Z,99.90
2018-07-14T21:33:55.059Z,99.90
2018-07-14T21:36:24.732Z,99.90
2018-07-14T21:38:54.468Z,99.90
2018-07-14T21:41:24.166Z,99.90
2018-07-14T21:43:53.945Z,99.90
2018-07-14T21:46:23.631Z,99.90
2018-07-14T21:48:53.382Z,99.90
2018-07-14T21:51:23.080Z,99.90
2018-07-14T21:53:52.879Z,99.90
2018-07-14T21:56:22.583Z,99.90
2018-07-14T21:58:52.330Z,99.90
2018-07-14T22:01:27.319Z,99.90
2018-07-14T22:03:57.063Z,99.90
2018-07-14T22:06:26.819Z,99.90
2018-07-14T22:08:56.575Z,99.90
2018-07-14T22:11:26.271Z,99.90
2018-07-14T22:13:56.090Z,99.90
2018-07-14T22:16:25.803Z,99.90
2018-07-14T22:18:55.564Z,99.90
2018-07-14T22:21:25.406Z,99.90
2018-07-14T22:23:55.151Z,99.90
2018-07-14T22:26:25.072Z,99.90
2018-07-14T22:28:54.838Z,99.90
2018-07-14T22:31:24.588Z,99.90
2018-07-14T22:33:54.377Z,99.90
2018-07-14T22:36:24.089Z,99.90
2018-07-14T22:38:53.839Z,99.90
2018-07-14T22:41:23.592Z,99.90
2018-07-14T22:43:53.316Z,99.90
2018-07-14T22:46:23.053Z,99.90
2018-07-14T22:48:52.770Z,99.90
2018-07-14T22:51:22.490Z,99.90
2018-07-14T22:53:52.196Z,99.90
2018-07-14T22:56:21.942Z,99.90
2018-07-14T22:58:51.652Z,99.90
2018-07-14T23:01:21.376Z,99.90
2018-07-14T23:03:51.107Z,99.90
2018-07-14T23:06:20.855Z,99.90
2018-07-14T23:08:50.593Z,99.90
2018-07-14T23:11:20.304Z,99.90
2018-07-14T23:13:50.059Z,99.90
2018-07-14T23:16:19.785Z,99.90
2018-07-14T23:18:49.488Z,99.90
2018-07-14T23:21:19.227Z,99.90
2018-07-14T23:23:48.973Z,99.90
2018-07-14T23:26:18.661Z,99.90
2018-07-14T23:28:48.416Z,99.90
2018-07-14T23:31:18.270Z,99.90
2018-07-14T23:33:48.047Z,99.90
2018-07-14T23:36:17.791Z,99.90
2018-07-14T23:38:47.497Z,99.90
2018-07-14T23:41:17.233Z,99.90
2018-07-14T23:43:46.998Z,99.90
2018-07-14T23:46:16.708Z,99.90
2018-07-14T23:48:46.436Z,99.90
2018-07-14T23:51:16.190Z,99.90
2018-07-14T23:53:45.927Z,99.90
2018-07-14T23:56:15.795Z,99.90
2018-07-14T23:58:45.454Z,99.90
